Time;durP1;ratioP1;P1;durP2;ratioP2;P2;SDS_P1;SDS_P2;PMS_P1;PMS_P2;Temp;Humidity;BMP_temperature;BMP_pressure;BME280_temperature;BME280_humidity;BME280_pressure;Samples;Min_cycle;Max_cycle;Signal;HPM_P1;HPM_P2
2021/11/01 00:00:18;;;;;;;50.85;27.87;;;;;;;4.81;75.94;100156.35;1699912;83;21099;-62
2021/11/01 00:02:46;;;;;;;44.85;27.85;;;;;;;4.79;75.97;100147.62;1726181;82;21052;-61
2021/11/01 00:05:14;;;;;;;51.73;29.10;;;;;;;4.81;76.11;100151.45;1720969;82;21044;-61
2021/11/01 00:07:41;;;;;;;54.03;29.70;;;;;;;4.82;76.18;100145.72;1701719;82;21035;-62
2021/11/01 00:10:10;;;;;;;55.20;30.95;;;;;;;4.82;76.11;100151.72;1720129;82;21155;-62
2021/11/01 00:12:36;;;;;;;50.58;29.35;;;;;;;4.81;76.16;100144.06;1725123;82;21013;-62
2021/11/01 00:15:03;;;;;;;52.88;29.72;;;;;;;4.81;76.16;100146.80;1724562;82;21511;-61
2021/11/01 00:17:32;;;;;;;49.80;28.50;;;;;;;4.79;76.19;100143.53;1723526;82;21027;-62
2021/11/01 00:19:59;;;;;;;52.60;27.82;;;;;;;4.79;76.17;100137.23;1722114;82;21023;-62
2021/11/01 00:22:27;;;;;;;48.05;27.90;;;;;;;4.78;76.20;100135.04;1724091;82;21111;-62
2021/11/01 00:24:55;;;;;;;48.40;29.12;;;;;;;4.80;76.20;100135.61;1718520;82;21039;-61
2021/11/01 00:27:21;;;;;;;50.90;28.75;;;;;;;4.81;76.20;100138.60;1702066;82;21531;-61
2021/11/01 00:29:47;;;;;;;56.18;30.77;;;;;;;4.81;76.20;100136.44;1725518;82;21118;-61
2021/11/01 00:32:14;;;;;;;52.78;29.92;;;;;;;4.81;76.19;100135.87;1700605;83;21039;-62
2021/11/01 00:34:41;;;;;;;57.88;32.05;;;;;;;4.80;76.19;100130.14;1724837;82;21168;-62
2021/11/01 00:37:10;;;;;;;53.92;29.75;;;;;;;4.78;76.11;100124.12;1723890;82;21032;-61
2021/11/01 00:39:36;;;;;;;59.33;33.10;;;;;;;4.76;76.08;100122.19;1723796;82;21075;-61
2021/11/01 00:42:06;;;;;;;49.33;28.32;;;;;;;4.73;76.05;100119.47;1698782;83;21071;-63
2021/11/01 00:44:33;;;;;;;46.40;27.65;;;;;;;4.72;76.05;100119.73;1722000;82;21511;-61
2021/11/01 00:47:01;;;;;;;45.38;28.02;;;;;;;4.71;76.07;100122.17;1727298;82;21149;-61
2021/11/01 00:49:28;;;;;;;55.33;29.02;;;;;;;4.70;76.10;100113.71;1727231;82;21091;-62
2021/11/01 00:51:56;;;;;;;45.20;26.82;;;;;;;4.69;76.07;100111.52;1723486;82;20991;-62
2021/11/01 00:54:23;;;;;;;42.55;26.45;;;;;;;4.69;76.14;100118.34;1724977;82;21051;-61
2021/11/01 00:56:49;;;;;;;47.20;27.80;;;;;;;4.67;76.07;100110.16;1726758;82;21568;-61
2021/11/01 00:59:15;;;;;;;46.08;28.15;;;;;;;4.63;76.08;100113.42;1721710;82;21128;-62
2021/11/01 01:01:42;;;;;;;52.05;29.20;;;;;;;4.60;76.07;100106.30;1724827;81;21007;-61
2021/11/01 01:04:08;;;;;;;49.35;28.07;;;;;;;4.57;76.08;100109.00;1721283;82;21015;-63
2021/11/01 01:06:34;;;;;;;51.83;27.32;;;;;;;4.56;76.17;100106.53;1721559;82;21541;-62
2021/11/01 01:09:01;;;;;;;47.62;26.75;;;;;;;4.54;76.09;100102.71;1699955;83;21023;-62
2021/11/01 01:11:29;;;;;;;46.05;26.23;;;;;;;4.51;76.14;100104.61;1725295;82;21120;-62
2021/11/01 01:13:56;;;;;;;43.90;25.52;;;;;;;4.50;75.84;100108.44;1721654;82;21470;-61
2021/11/01 01:16:25;;;;;;;47.55;26.60;;;;;;;4.38;75.59;100101.83;1723862;82;21083;-61
2021/11/01 01:18:56;;;;;;;48.10;28.00;;;;;;;4.33;75.83;100095.77;1725059;82;21087;-62
2021/11/01 01:24:06;;;;;;;45.15;27.00;;;;;;;4.28;75.93;100090.31;1724524;82;21794;-60
2021/11/01 01:26:32;;;;;;;52.55;29.25;;;;;;;4.24;75.92;100089.18;1692047;82;21008;-61
2021/11/01 01:28:58;;;;;;;56.53;29.80;;;;;;;4.21;76.18;100086.98;1726078;82;21039;-62
2021/11/01 01:31:27;;;;;;;59.30;29.63;;;;;;;4.19;76.30;100080.44;1725926;82;21451;-62
2021/11/01 01:33:53;;;;;;;48.70;27.82;;;;;;;4.18;76.39;100082.86;1726704;82;21028;-61
2021/11/01 01:36:19;;;;;;;54.67;29.20;;;;;;;4.19;76.46;100083.70;1723138;82;21167;-61
2021/11/01 01:38:46;;;;;;;58.63;29.52;;;;;;;4.21;76.62;100082.89;1722802;82;21098;-62
2021/11/01 01:41:25;;;;;;;59.50;31.07;;;;;;;4.23;76.79;100075.28;1723171;82;21603;-61
2021/11/01 01:43:55;;;;;;;62.08;30.27;;;;;;;4.25;76.96;100075.81;1723361;82;21555;-60
2021/11/01 01:46:23;;;;;;;52.13;31.70;;;;;;;4.28;77.09;100075.30;1724330;82;21044;-62
2021/11/01 01:48:50;;;;;;;58.40;31.97;;;;;;;4.28;77.16;100071.21;1724751;82;21843;-61
2021/11/01 01:51:16;;;;;;;51.55;31.23;;;;;;;4.29;77.21;100068.75;1698179;82;21058;-61
2021/11/01 01:53:43;;;;;;;58.80;31.65;;;;;;;4.29;77.20;100072.02;1730551;82;21035;-61
2021/11/01 01:56:09;;;;;;;52.27;31.93;;;;;;;4.28;77.26;100067.66;1704368;82;21039;-62
2021/11/01 01:58:49;;;;;;;55.63;30.30;;;;;;;4.26;77.41;100068.72;1728035;82;21062;-62
2021/11/01 02:01:18;;;;;;;53.42;29.37;;;;;;;4.28;77.45;100067.66;1717816;82;21726;-61
2021/11/01 02:03:53;;;;;;;56.25;30.40;;;;;;;4.26;77.48;100067.92;1692870;82;21111;-61
2021/11/01 02:06:41;;;;;;;49.90;29.67;;;;;;;4.26;77.53;100063.83;1722782;82;21043;-62
2021/11/01 02:09:35;;;;;;;46.30;29.02;;;;;;;4.25;77.56;100061.63;1719225;82;21091;-62
2021/11/01 02:12:05;;;;;;;;;;;;;;;4.25;77.59;100064.89;1726525;82;21020;-61
2021/11/01 02:14:44;;;;;;;52.20;28.05;;;;;;;4.23;77.74;100064.36;1725161;82;21141;-62
2021/11/01 02:17:18;;;;;;;52.93;29.48;;;;;;;4.22;77.77;100062.70;1722824;82;21019;-61
2021/11/01 02:19:49;;;;;;;53.25;30.65;;;;;;;4.21;77.87;100058.34;1719803;82;21516;-61
2021/11/01 02:22:20;;;;;;;54.93;30.05;;;;;;;4.21;77.87;100051.52;1723463;82;21082;-61
2021/11/01 02:25:03;;;;;;;52.70;30.20;;;;;;;4.20;77.88;100052.59;1723403;82;21133;-61
2021/11/01 02:27:32;;;;;;;51.45;30.00;;;;;;;4.18;77.91;100056.15;1709597;82;21171;-61
2021/11/01 02:29:59;;;;;;;51.55;29.87;;;;;;;4.17;77.95;100055.31;1728364;82;21079;-61
2021/11/01 02:32:26;;;;;;;49.40;29.18;;;;;;;4.18;77.98;100050.69;1725241;82;21043;-61
2021/11/01 02:34:53;;;;;;;52.73;29.63;;;;;;;4.16;78.03;100044.14;1722317;82;21051;-61
2021/11/01 02:37:21;;;;;;;52.85;30.08;;;;;;;4.17;78.11;100047.67;1720753;82;21047;-60
2021/11/01 02:39:55;;;;;;;52.17;28.35;;;;;;;4.15;78.11;100049.30;1723091;82;21813;-61
2021/11/01 02:42:25;;;;;;;54.40;30.90;;;;;;;4.14;78.14;100038.92;1717156;82;21008;-61
2021/11/01 02:44:59;;;;;;;55.60;29.98;;;;;;;4.13;78.17;100041.38;1726996;82;21020;-61
2021/11/01 02:47:26;;;;;;;50.67;29.90;;;;;;;4.12;78.19;100036.19;1723671;82;21068;-62
2021/11/01 02:49:52;;;;;;;52.43;29.85;;;;;;;4.11;78.20;100036.72;1727428;82;21630;-61
2021/11/01 02:52:19;;;;;;;49.10;30.40;;;;;;;4.11;78.33;100035.36;1697541;83;21071;-62
2021/11/01 02:54:45;;;;;;;49.20;28.30;;;;;;;4.13;78.45;100035.92;1728225;82;21098;-61
2021/11/01 02:57:13;;;;;;;50.15;29.37;;;;;;;4.14;78.52;100029.38;1720525;82;21345;-61
2021/11/01 02:59:41;;;;;;;48.48;29.67;;;;;;;4.16;78.57;100035.12;1720560;82;21084;-61
2021/11/01 03:02:07;;;;;;;51.10;31.00;;;;;;;4.17;78.58;100029.41;1718948;83;21017;-61
2021/11/01 03:04:34;;;;;;;54.67;30.20;;;;;;;4.16;78.54;100028.30;1714956;83;21107;-62
2021/11/01 03:07:00;;;;;;;49.03;30.55;;;;;;;4.16;78.66;100029.67;1719927;83;21615;-60
2021/11/01 03:09:29;;;;;;;55.03;29.32;;;;;;;4.16;78.72;100020.13;1715505;83;21489;-61
2021/11/01 03:11:58;;;;;;;48.92;28.83;;;;;;;4.16;78.79;100025.58;1685261;83;21600;-61
2021/11/01 03:14:29;;;;;;;56.30;31.30;;;;;;;4.17;78.90;100025.84;1718725;83;21016;-62
2021/11/01 03:16:59;;;;;;;45.48;27.75;;;;;;;4.18;78.96;100023.41;1691759;83;21370;-61
2021/11/01 03:19:30;;;;;;;50.45;31.77;;;;;;;4.18;78.99;100027.50;1717267;83;21565;-62
2021/11/01 03:22:00;;;;;;;49.03;28.90;;;;;;;4.18;79.07;100023.41;1717306;83;21084;-61
2021/11/01 03:24:29;;;;;;;48.35;30.65;;;;;;;4.18;79.21;100025.58;1717589;82;21508;-61
2021/11/01 03:26:56;;;;;;;53.78;34.15;;;;;;;4.18;79.19;100028.87;1717761;83;21005;-61
2021/11/01 03:29:22;;;;;;;54.95;32.95;;;;;;;4.15;79.22;100026.11;1720559;83;21124;-60
2021/11/01 03:31:49;;;;;;;51.08;30.20;;;;;;;4.15;79.25;100027.47;1723008;83;21088;-61
2021/11/01 03:34:17;;;;;;;44.15;28.73;;;;;;;4.12;79.25;100026.11;1715178;83;21012;-61
2021/11/01 03:36:44;;;;;;;48.17;29.60;;;;;;;4.11;79.25;100024.45;1657160;83;21564;-62
2021/11/01 03:39:13;;;;;;;49.35;29.23;;;;;;;4.10;79.33;100017.36;1714134;83;21012;-61
2021/11/01 03:41:41;;;;;;;49.50;29.42;;;;;;;4.10;79.41;100020.09;1697475;83;21845;-61
2021/11/01 03:44:12;;;;;;;47.43;30.20;;;;;;;4.09;79.50;100014.38;1717792;82;21489;-61
2021/11/01 03:46:41;;;;;;;55.43;31.87;;;;;;;4.09;79.61;100011.64;1719314;83;21091;-61
2021/11/01 03:49:09;;;;;;;51.77;30.75;;;;;;;4.09;79.63;100008.92;1720975;82;21004;-61
2021/11/01 03:51:40;;;;;;;56.58;31.75;;;;;;;4.08;79.73;100007.79;1718143;82;21087;-61
2021/11/01 03:54:06;;;;;;;53.90;32.13;;;;;;;4.07;79.80;100001.53;1714698;83;21563;-61
2021/11/01 03:56:35;;;;;;;50.28;29.85;;;;;;;4.06;79.73;100004.53;1717653;83;21064;-62
2021/11/01 03:59:02;;;;;;;53.00;30.68;;;;;;;4.04;79.65;100002.59;1686823;83;21057;-61
2021/11/01 04:01:28;;;;;;;58.68;31.48;;;;;;;4.02;79.66;99997.41;1723247;82;21019;-62
2021/11/01 04:03:58;;;;;;;51.45;31.37;;;;;;;4.00;79.69;100000.41;1719796;82;21052;-61
2021/11/01 04:06:24;;;;;;;54.98;31.62;;;;;;;3.99;79.76;99996.59;1726408;82;21075;-62
2021/11/01 04:08:51;;;;;;;57.67;32.42;;;;;;;3.99;79.82;99999.31;1724591;82;21631;-61
2021/11/01 04:11:18;;;;;;;53.42;33.40;;;;;;;3.99;79.89;99996.59;1724889;82;21121;-61
2021/11/01 04:13:44;;;;;;;55.92;32.20;;;;;;;3.98;79.89;99997.65;1717541;82;21113;-62
2021/11/01 04:16:16;;;;;;;49.58;31.27;;;;;;;3.95;79.84;99990.83;1722211;82;21507;-61
2021/11/01 04:21:16;;;;;;;54.67;32.73;;;;;;;3.90;79.81;99986.71;1678434;83;21031;-62
2021/11/01 04:23:43;;;;;;;52.10;32.13;;;;;;;3.88;79.85;99986.15;1692433;82;21091;-63
2021/11/01 04:26:13;;;;;;;55.03;31.35;;;;;;;3.86;79.94;99976.88;1690890;83;21086;-62
2021/11/01 04:28:38;;;;;;;50.15;31.33;;;;;;;3.85;79.94;99983.95;1724456;82;21051;-61
2021/11/01 04:31:09;;;;;;;47.85;31.20;;;;;;;3.84;79.91;99983.13;1724516;82;21088;-62
2021/11/01 04:33:34;;;;;;;47.00;31.25;;;;;;;3.82;79.90;99978.47;1702897;82;21035;-61
2021/11/01 04:36:00;;;;;;;56.45;32.95;;;;;;;3.80;79.98;99980.66;1719784;82;21105;-62
2021/11/01 04:54:09;;;;;;;54.45;32.55;;;;;;;3.71;80.21;99976.77;1725886;82;21031;-62
2021/11/01 04:56:36;;;;;;;54.15;31.27;;;;;;;3.70;80.30;99981.95;1723962;82;21492;-62
2021/11/01 04:59:02;;;;;;;56.13;31.17;;;;;;;3.69;80.32;99978.40;1689632;83;21551;-61
2021/11/01 05:01:34;;;;;;;52.10;31.85;;;;;;;3.68;80.29;99980.03;1718158;83;21043;-60
2021/11/01 05:04:02;;;;;;;64.90;35.03;;;;;;;3.66;80.29;99980.30;1716157;83;21044;-61
2021/11/01 05:06:26;;;;;;;57.53;32.13;;;;;;;3.64;80.22;99976.47;1718475;83;21577;-61
2021/11/01 05:09:44;;;;;;;55.50;31.45;;;;;;;3.62;80.25;99973.17;1675360;85;21259;-61
2021/11/01 05:11:31;;;;;;;56.35;31.87;;;;;;;3.61;80.25;99970.19;1666085;85;21054;-61
2021/11/01 05:13:50;;;;;;;58.30;33.25;;;;;;;3.61;80.28;99969.36;1672770;85;21058;-61
2021/11/01 05:16:34;;;;;;;57.58;32.70;;;;;;;3.60;80.37;99969.89;1717445;83;21642;-61
2021/11/01 05:21:34;;;;;;;57.17;32.45;;;;;;;3.64;80.63;99971.55;1721005;82;21836;-61
2021/11/01 05:24:07;;;;;;;57.62;33.58;;;;;;;3.67;80.72;99975.67;1706242;82;21927;-61
2021/11/01 05:29:04;;;;;;;66.22;37.60;;;;;;;3.71;80.81;99971.32;1692188;83;21048;-61
2021/11/01 05:31:27;;;;;;;62.75;35.63;;;;;;;3.73;80.85;99969.16;1717543;83;21024;-61
2021/11/01 05:34:02;;;;;;;58.85;34.67;;;;;;;3.74;80.91;99969.42;1717155;83;21115;-62
2021/11/01 05:36:24;;;;;;;57.48;33.00;;;;;;;3.78;81.00;99976.01;1715454;82;21060;-60
2021/11/01 05:38:51;;;;;;;58.50;34.23;;;;;;;3.82;81.08;99973.02;1717482;82;21496;-60
2021/11/01 05:41:17;;;;;;;72.65;36.38;;;;;;;3.88;81.09;99980.16;1694699;83;21075;-61
2021/11/01 05:43:45;;;;;;;63.65;35.73;;;;;;;3.93;81.13;99983.45;1716260;83;21079;-60
2021/11/01 05:46:12;;;;;;;64.32;34.45;;;;;;;3.98;81.19;99984.84;1717438;83;21530;-61
2021/11/01 05:48:47;;;;;;;65.50;37.03;;;;;;;4.03;81.18;99986.77;1717635;83;21041;-61
2021/11/01 05:51:14;;;;;;;65.92;36.33;;;;;;;4.06;81.24;99987.59;1717936;83;21538;-60
2021/11/01 05:53:40;;;;;;;65.00;36.08;;;;;;;4.12;81.27;99990.65;1717798;83;21072;-60
2021/11/01 05:56:25;;;;;;;68.67;37.45;;;;;;;4.18;81.20;99990.68;1717089;83;21016;-60
2021/11/01 06:01:38;;;;;;;63.87;36.53;;;;;;;4.29;81.16;99988.80;1721697;82;21054;-61
2021/11/01 06:04:02;;;;;;;65.90;36.90;;;;;;;4.34;81.13;99989.66;1719936;83;21035;-61
2021/11/01 06:14:39;;;;;;;74.58;40.30;;;;;;;4.58;80.83;99990.56;1694520;84;21040;-61
2021/11/01 06:17:06;;;;;;;87.45;43.70;;;;;;;4.64;80.79;99988.64;1725131;81;21110;-61
2021/11/01 06:19:33;;;;;;;72.03;41.18;;;;;;;4.69;80.78;99986.49;1713901;83;21049;-62
2021/11/01 06:21:59;;;;;;;75.57;41.28;;;;;;;4.73;80.67;99983.48;1715416;83;21054;-62
2021/11/01 06:27:14;;;;;;;73.35;39.03;;;;;;;4.86;80.62;99985.70;1721946;83;21015;-61
2021/11/01 06:29:55;;;;;;;73.78;37.42;;;;;;;4.95;80.52;99987.36;1689473;83;21032;-61
2021/11/01 06:32:25;;;;;;;66.25;38.45;;;;;;;5.05;80.48;99991.20;1704941;83;21047;-62
2021/11/01 06:54:01;;;;;;;69.05;36.68;;;;;;;5.60;79.47;99986.01;1699000;84;21013;-61
2021/11/01 06:56:35;;;;;;;68.28;40.05;;;;;;;5.65;79.28;99987.08;1693821;84;21056;-62
2021/11/01 07:15:21;;;;;;;75.47;43.30;;;;;;;6.01;78.39;99984.82;1692346;84;21023;-60
2021/11/01 07:17:55;;;;;;;77.55;40.03;;;;;;;6.08;78.11;99995.79;1694634;84;21161;-60
2021/11/01 07:20:30;;;;;;;76.92;43.08;;;;;;;6.11;78.15;99987.56;1706042;81;21042;-61
2021/11/01 07:23:08;;;;;;;72.25;42.50;;;;;;;6.18;78.10;99987.27;1732794;82;20999;-61
2021/11/01 07:38:09;;;;;;;72.47;39.70;;;;;;;6.39;77.32;99987.19;1738965;82;21970;-61
2021/11/01 08:25:15;;;;;;;64.60;35.85;;;;;;;7.71;74.31;99942.92;1700064;84;21140;-60
2021/11/01 08:46:32;;;;;;;61.13;36.05;;;;;;;8.64;71.41;99927.28;1671671;84;37754;-60
2021/11/01 08:49:12;;;;;;;64.05;38.00;;;;;;;8.74;71.12;99929.61;1701805;84;21037;-59
2021/11/01 08:51:57;;;;;;;72.12;41.83;;;;;;;8.84;70.91;99933.58;1701393;84;21131;-62
2021/11/01 09:02:47;;;;;;;69.87;38.02;;;;;;;9.16;70.05;99917.98;1700778;84;21661;-61
2021/11/01 09:13:51;;;;;;;63.87;38.15;;;;;;;9.50;68.94;99912.13;1689377;84;21588;-62
2021/11/01 09:26:47;;;;;;;64.95;38.00;;;;;;;10.12;67.35;99896.91;1686172;84;21145;-63
2021/11/01 09:29:39;;;;;;;56.45;34.60;;;;;;;10.17;66.67;99887.16;1678519;84;21065;-62
2021/11/01 09:42:46;;;;;;;60.52;37.25;;;;;;;10.52;66.53;99876.25;1701937;84;21068;-60
2021/11/01 09:45:13;;;;;;;72.35;37.58;;;;;;;10.67;66.45;99870.39;1701231;84;21624;-65
2021/11/01 09:47:43;;;;;;;67.87;37.15;;;;;;;10.81;65.66;99868.14;1678797;84;21044;-62
2021/11/01 09:50:08;;;;;;;68.50;37.08;;;;;;;10.88;65.47;99861.63;1702766;84;21488;-61
2021/11/01 09:52:37;;;;;;;73.90;36.17;;;;;;;10.99;65.30;99865.48;1678881;84;21064;-61
2021/11/01 09:55:38;;;;;;;64.95;37.58;;;;;;;11.09;65.19;99854.19;1700506;83;21561;-62
2021/11/01 10:00:32;;;;;;;66.53;34.85;;;;;;;11.31;64.73;99855.30;1676625;84;21060;-63
2021/11/01 10:02:59;;;;;;;59.00;34.13;;;;;;;11.43;64.60;99854.13;1710717;83;22034;-61
2021/11/01 10:05:26;;;;;;;61.80;34.75;;;;;;;11.56;64.42;99851.04;1714553;83;20996;-61
2021/11/01 10:07:54;;;;;;;53.65;33.80;;;;;;;11.68;63.83;99849.05;1737943;81;21017;-61
2021/11/01 10:10:20;;;;;;;59.73;34.38;;;;;;;11.74;63.44;99848.87;1678558;84;21966;-63
2021/11/01 10:12:49;;;;;;;61.28;34.83;;;;;;;11.82;63.25;99843.97;1708911;83;21031;-62
2021/11/01 10:18:13;;;;;;;53.48;33.50;;;;;;;11.89;62.75;99833.84;1710894;83;21024;-62
2021/11/01 10:20:50;;;;;;;56.25;33.30;;;;;;;11.92;62.79;99823.53;1690960;83;21047;-62
2021/11/01 10:23:33;;;;;;;53.78;33.05;;;;;;;11.97;62.66;99830.28;1741563;82;21158;-62
2021/11/01 10:26:17;;;;;;;50.90;32.53;;;;;;;12.01;62.37;99831.84;1713158;83;21675;-62
2021/11/01 10:28:48;;;;;;;53.63;31.70;;;;;;;12.03;62.26;99823.45;1715440;83;21134;-61
2021/11/01 10:31:24;;;;;;;54.13;33.97;;;;;;;12.04;62.12;99825.07;1713534;83;21102;-62
2021/11/01 10:34:09;;;;;;;50.55;32.10;;;;;;;12.03;62.06;99821.25;1712137;83;20945;-62
2021/11/01 10:36:38;;;;;;;49.40;32.35;;;;;;;12.05;62.26;99825.89;1717284;83;21125;-62
2021/11/01 10:39:13;;;;;;;47.43;31.75;;;;;;;12.07;62.14;99818.11;1716183;83;21102;-63
2021/11/01 10:41:59;;;;;;;47.90;29.98;;;;;;;12.10;62.01;99817.48;1714684;83;21543;-62
2021/11/01 10:58:41;;;;;;;46.88;27.22;;;;;;;12.01;62.52;99805.59;1725910;82;21554;-61
2021/11/01 11:12:14;;;;;;;47.10;27.95;;;;;;;12.41;62.28;99787.52;1707086;82;21055;-62
2021/11/01 11:14:44;;;;;;;45.05;29.02;;;;;;;12.51;61.67;99786.37;1718511;82;21117;-61
2021/11/01 11:17:15;;;;;;;41.88;27.32;;;;;;;12.46;61.50;99778.80;1704061;83;21508;-61
2021/11/01 11:32:55;;;;;;;52.27;34.05;;;;;;;12.81;60.75;99756.62;1723286;82;21090;-62
2021/11/01 11:49:16;;;;;;;44.00;29.95;;;;;;;12.99;59.52;99754.63;1722281;82;21567;-61
2021/11/01 11:52:03;;;;;;;40.25;29.12;;;;;;;13.03;59.65;99745.90;1701682;82;21159;-62
2021/11/01 11:54:42;;;;;;;45.73;29.70;;;;;;;13.07;59.55;99744.66;1696893;82;21051;-61
2021/11/01 11:57:29;;;;;;;49.75;27.48;;;;;;;13.13;59.31;99748.07;1690592;83;21224;-61
2021/11/01 11:59:58;;;;;;;41.40;26.73;;;;;;;13.14;59.00;99740.00;1720549;82;21012;-62
2021/11/01 12:02:43;;;;;;;41.83;26.77;;;;;;;13.18;58.87;99734.62;1722116;82;21028;-62
2021/11/01 12:05:28;;;;;;;48.38;25.88;;;;;;;13.17;59.01;99735.77;1691949;82;21012;-61
2021/11/01 12:08:12;;;;;;;47.85;26.35;;;;;;;13.24;58.93;99729.13;1720826;82;21587;-62
2021/11/01 12:18:29;;;;;;;43.15;28.50;;;;;;;13.20;58.68;99721.27;1669085;82;21095;-62
2021/11/01 12:20:59;;;;;;;45.90;27.42;;;;;;;13.21;58.76;99711.25;1720561;82;21055;-62
2021/11/01 12:23:38;;;;;;;43.92;29.77;;;;;;;13.26;58.51;99715.78;1727509;82;21130;-63
2021/11/01 12:26:12;;;;;;;44.00;27.10;;;;;;;13.32;58.55;99703.95;1709996;82;21024;-61
2021/11/01 12:28:38;;;;;;;44.70;27.85;;;;;;;13.35;58.36;99699.95;1722357;82;21473;-61
2021/11/01 12:31:09;;;;;;;43.05;28.00;;;;;;;13.37;58.41;99703.17;1694435;82;21669;-62
2021/11/01 12:33:38;;;;;;;41.42;27.77;;;;;;;13.40;58.05;99700.33;1720015;82;22056;-62
2021/11/01 12:36:08;;;;;;;43.17;28.67;;;;;;;13.39;57.95;99696.73;1697511;83;21052;-60
2021/11/01 12:38:41;;;;;;;42.50;27.22;;;;;;;13.39;58.12;99698.13;1700769;83;21020;-61
2021/11/01 12:41:16;;;;;;;39.30;26.40;;;;;;;13.38;58.01;99693.74;1726889;82;21484;-61
2021/11/01 12:44:39;;;;;;;44.40;24.55;;;;;;;13.33;58.09;99695.31;1725462;81;21516;-62
2021/11/01 12:57:33;;;;;;;39.25;24.52;;;;;;;12.93;58.54;99688.77;1725191;82;21504;-62
2021/11/01 13:00:00;;;;;;;39.95;26.75;;;;;;;12.87;58.84;99689.52;1704016;84;21041;-62
2021/11/01 13:02:32;;;;;;;40.55;24.20;;;;;;;12.83;58.99;99693.52;1704720;83;21174;-62
2021/11/01 13:05:06;;;;;;;34.55;21.25;;;;;;;12.75;58.84;99692.41;1726294;82;20996;-62
2021/11/01 13:07:46;;;;;;;34.90;22.87;;;;;;;12.71;59.11;99693.41;1721371;82;21103;-61
2021/11/01 13:10:20;;;;;;;;;;;;;;;12.67;59.25;99687.73;1725189;81;21536;-61
2021/11/01 13:18:09;;;;;;;57.73;35.48;;;;;;;12.69;58.91;99689.60;1723238;82;21496;-62
2021/11/01 13:20:41;;;;;;;38.63;24.02;;;;;;;12.70;58.75;99686.25;1724638;82;21063;-62
2021/11/01 13:23:08;;;;;;;40.05;27.13;;;;;;;12.72;58.80;99681.20;1698020;82;21019;-63
2021/11/01 13:25:49;;;;;;;40.55;26.37;;;;;;;12.77;58.77;99679.64;1727911;82;21007;-62
2021/11/01 13:28:45;;;;;;;36.93;22.95;;;;;;;12.87;58.76;99666.84;1725102;82;22085;-62
2021/11/01 13:38:55;;;;;;;49.08;30.92;;;;;;;13.22;57.57;99661.68;1714137;82;21127;-62
2021/11/01 13:41:29;;;;;;;37.28;25.20;;;;;;;13.22;57.20;99661.68;1711905;83;21164;-61
2021/11/01 13:44:13;;;;;;;39.53;24.52;;;;;;;13.09;57.04;99659.41;1728749;82;20992;-62
2021/11/01 13:46:48;;;;;;;34.67;23.92;;;;;;;12.90;57.17;99659.81;1722210;82;21585;-63
2021/11/01 13:49:15;;;;;;;38.53;25.25;;;;;;;12.65;57.52;99656.84;1722295;82;21091;-62
2021/11/01 13:51:47;;;;;;;42.53;22.67;;;;;;;12.39;57.97;99664.63;1724128;82;20997;-61
2021/11/01 13:54:23;;;;;;;35.75;22.52;;;;;;;12.17;58.45;99652.09;1723099;82;21493;-62
2021/11/01 13:56:46;;;;;;;38.63;23.65;;;;;;;11.99;58.89;99642.97;1722517;82;21100;-61
2021/11/01 13:59:38;;;;;;;36.30;23.85;;;;;;;11.81;59.30;99643.00;1728814;82;21013;-61
2021/11/01 14:35:01;;;;;;;37.33;25.52;;;;;;;9.90;65.21;99643.86;1725815;82;21237;-61
2021/11/01 15:19:50;;;;;;;44.67;27.75;;;;;;;8.78;70.36;99644.91;1718120;82;21086;-61
2021/11/01 15:25:33;;;;;;;50.00;29.52;;;;;;;8.70;70.89;99653.28;1726701;82;21024;-61
2021/11/01 15:35:48;;;;;;;47.50;29.05;;;;;;;8.52;71.77;99659.91;1717417;82;21048;-62
2021/11/01 16:18:51;;;;;;;37.17;22.40;;;;;;;8.02;74.80;99650.33;1732462;82;21042;-62
2021/11/01 16:21:19;;;;;;;34.80;22.65;;;;;;;7.99;75.04;99651.48;1724301;82;22178;-62
2021/11/01 16:23:45;;;;;;;38.63;24.02;;;;;;;7.97;75.19;99653.70;1715399;82;21012;-62
2021/11/01 16:28:50;;;;;;;45.43;25.45;;;;;;;7.97;75.51;99663.30;1712219;82;21114;-62
2021/11/01 16:33:48;;;;;;;41.00;26.12;;;;;;;7.96;75.85;99662.51;1728831;82;21969;-62
2021/11/01 16:36:29;;;;;;;38.73;25.02;;;;;;;7.95;75.96;99662.23;1705840;82;21106;-62
2021/11/01 16:38:51;;;;;;;38.28;24.52;;;;;;;7.94;76.07;99664.73;1721909;82;21531;-62
2021/11/01 16:41:14;;;;;;;36.33;23.38;;;;;;;7.96;76.24;99665.80;1721745;82;21058;-62
2021/11/01 16:43:41;;;;;;;36.08;23.27;;;;;;;7.96;76.37;99663.88;1732585;82;21102;-62
2021/11/01 16:46:07;;;;;;;40.75;25.10;;;;;;;7.98;76.50;99666.33;1707708;82;21144;-62
2021/11/01 16:48:34;;;;;;;38.35;24.50;;;;;;;8.00;76.56;99665.47;1732007;82;21673;-63
2021/11/01 16:51:00;;;;;;;36.77;25.00;;;;;;;8.03;76.65;99662.92;1722816;82;21042;-61
2021/11/01 16:53:28;;;;;;;35.25;24.45;;;;;;;8.04;76.62;99663.20;1716276;82;21054;-62
2021/11/01 16:55:57;;;;;;;47.73;26.68;;;;;;;8.06;76.63;99654.66;1694169;83;21101;-62
2021/11/01 16:58:28;;;;;;;43.23;27.67;;;;;;;8.07;76.63;99665.09;1666746;83;21134;-62
2021/11/01 17:01:02;;;;;;;41.83;25.40;;;;;;;8.08;76.62;99655.73;1710200;83;21023;-61
2021/11/01 17:03:46;;;;;;;45.70;28.00;;;;;;;8.08;76.61;99659.30;1703946;82;21083;-62
2021/11/01 17:06:32;;;;;;;46.02;28.00;;;;;;;8.07;76.62;99658.23;1714670;82;21060;-62
2021/11/01 17:09:19;;;;;;;41.13;27.62;;;;;;;8.06;76.66;99653.84;1693496;83;21220;-62
2021/11/01 17:25:09;;;;;;;50.52;29.20;;;;;;;8.12;76.64;99637.56;1718497;82;21091;-61
2021/11/01 17:28:15;;;;;;;43.00;28.17;;;;;;;8.10;76.56;99628.23;1697374;83;21063;-61
2021/11/01 17:30:51;;;;;;;52.98;28.87;;;;;;;8.07;76.60;99630.78;1712988;82;21107;-61
2021/11/01 17:36:21;;;;;;;45.05;28.90;;;;;;;8.02;76.72;99626.17;1693964;82;21183;-62
2021/11/01 18:43:04;;;;;;;49.15;30.80;;;;;;;7.87;78.24;99579.23;1707324;83;21138;-61
2021/11/01 18:53:22;;;;;;;53.65;30.97;;;;;;;7.88;78.27;99571.28;1708796;83;21403;-61
2021/11/01 18:55:53;;;;;;;51.25;30.62;;;;;;;7.88;78.30;99571.28;1706657;83;21048;-61
2021/11/01 18:58:23;;;;;;;59.63;32.20;;;;;;;7.89;78.30;99575.64;1709084;83;21099;-62
2021/11/01 19:00:51;;;;;;;56.60;33.85;;;;;;;7.88;78.26;99570.70;1716165;81;21153;-61
2021/11/01 19:03:21;;;;;;;51.95;31.42;;;;;;;7.88;78.23;99569.91;1695735;82;21022;-61
2021/11/01 19:06:05;;;;;;;53.90;29.72;;;;;;;7.89;78.16;99572.89;1706308;83;21024;-61
2021/11/01 19:11:36;;;;;;;54.98;31.50;;;;;;;7.86;78.08;99566.09;1728305;82;21007;-62
2021/11/01 20:03:40;;;;;;;55.73;31.15;;;;;;;7.58;77.84;99535.83;1699079;82;22194;-61
2021/11/01 20:05:59;;;;;;;53.20;31.45;;;;;;;7.57;77.86;99536.13;1717056;82;21109;-62
2021/11/01 20:11:12;;;;;;;51.28;32.78;;;;;;;7.54;77.79;99535.61;1724396;82;21027;-62
2021/11/01 21:25:23;;;;;;;65.78;43.33;;;;;;;7.01;77.95;99472.31;1722864;83;22204;-63
2021/11/01 21:27:49;;;;;;;68.47;44.13;;;;;;;7.00;78.00;99476.97;1676816;83;21072;-63
2021/11/01 21:30:16;;;;;;;66.20;43.45;;;;;;;6.99;77.95;99476.72;1727128;82;21128;-63
2021/11/01 21:32:43;;;;;;;70.40;40.88;;;;;;;6.98;78.01;99475.08;1724234;83;21046;-62
2021/11/01 21:35:13;;;;;;;67.30;40.98;;;;;;;6.96;77.98;99469.07;1699744;83;21071;-62
2021/11/01 21:37:42;;;;;;;69.10;40.35;;;;;;;6.97;77.98;99467.98;1695358;83;21551;-61
2021/11/01 21:40:11;;;;;;;67.85;40.28;;;;;;;6.96;77.95;99462.22;1722817;83;21044;-61
2021/11/01 21:42:37;;;;;;;64.80;39.98;;;;;;;6.94;77.97;99469.95;1722868;83;21104;-61
2021/11/01 21:45:07;;;;;;;62.40;40.80;;;;;;;6.94;77.98;99470.73;1724413;83;21011;-61
2021/11/01 21:47:35;;;;;;;70.15;42.78;;;;;;;6.94;78.00;99470.73;1700254;83;21102;-61
2021/11/01 21:50:03;;;;;;;70.25;43.35;;;;;;;6.92;78.07;99470.25;1726340;83;21047;-61
2021/11/01 21:52:30;;;;;;;66.87;42.80;;;;;;;6.93;78.10;99471.04;1700006;83;21595;-61
2021/11/01 21:54:58;;;;;;;69.53;41.60;;;;;;;6.92;78.05;99466.69;1726679;83;22526;-61
2021/11/01 21:58:05;;;;;;;60.17;40.40;;;;;;;6.92;78.05;99463.95;1726187;83;21508;-61
2021/11/01 22:21:44;;;;;;;75.42;43.00;;;;;;;6.81;78.11;99442.18;1727731;82;22950;-61
2021/11/01 22:24:13;;;;;;;67.82;42.60;;;;;;;6.81;78.14;99439.44;1725821;82;21128;-63